sensor_id;sensor_type;location;lat;lon;timestamp;P1;durP1;ratioP1;P2;durP2;ratioP2
9473;SDS011;8865;47.636;7.692;2022-10-15T00:01:08;3.30;;;1.80;;
9473;SDS011;8865;47.636;7.692;2022-10-15T00:03:36;2.07;;;1.70;;
9473;SDS011;8865;47.636;7.692;2022-10-15T00:06:07;2.27;;;1.60;;
9473;SDS011;8865;47.636;7.692;2022-10-15T00:08:36;2.90;;;1.70;;
9473;SDS011;8865;47.636;7.692;2022-10-15T00:11:03;2.93;;;1.50;;
9473;SDS011;8865;47.636;7.692;2022-10-15T00:13:31;2.70;;;1.60;;
9473;SDS011;8865;47.636;7.692;2022-10-15T00:15:57;1.80;;;1.70;;
9473;SDS011;8865;47.636;7.692;2022-10-15T00:18:23;2.57;;;1.80;;
9473;SDS011;8865;47.636;7.692;2022-10-15T00:20:49;2.23;;;1.70;;
9473;SDS011;8865;47.636;7.692;2022-10-15T00:23:15;2.63;;;1.60;;
9473;SDS011;8865;47.636;7.692;2022-10-15T00:25:41;3.30;;;1.87;;
9473;SDS011;8865;47.636;7.692;2022-10-15T00:28:07;2.37;;;2.10;;
9473;SDS011;8865;47.636;7.692;2022-10-15T00:30:33;5.27;;;2.40;;
9473;SDS011;8865;47.636;7.692;2022-10-15T00:32:59;2.07;;;1.87;;
9473;SDS011;8865;47.636;7.692;2022-10-15T00:35:25;4.43;;;1.80;;
9473;SDS011;8865;47.636;7.692;2022-10-15T00:37:51;5.00;;;2.00;;
9473;SDS011;8865;47.636;7.692;2022-10-15T00:40:17;2.27;;;1.80;;
9473;SDS011;8865;47.636;7.692;2022-10-15T00:42:44;3.57;;;1.90;;
9473;SDS011;8865;47.636;7.692;2022-10-15T00:45:11;1.93;;;1.60;;
9473;SDS011;8865;47.636;7.692;2022-10-15T00:47:48;2.40;;;1.57;;
9473;SDS011;8865;47.636;7.692;2022-10-15T00:50:17;1.77;;;1.00;;
9473;SDS011;8865;47.636;7.692;2022-10-15T00:52:56;2.23;;;1.20;;
9473;SDS011;8865;47.636;7.692;2022-10-15T00:55:33;2.30;;;0.90;;
9473;SDS011;8865;47.636;7.692;2022-10-15T00:58:07;2.93;;;0.83;;
9473;SDS011;8865;47.636;7.692;2022-10-15T01:00:35;0.40;;;0.40;;
9473;SDS011;8865;47.636;7.692;2022-10-15T01:03:02;0.90;;;0.50;;
9473;SDS011;8865;47.636;7.692;2022-10-15T01:05:28;1.63;;;0.40;;
9473;SDS011;8865;47.636;7.692;2022-10-15T01:07:55;1.27;;;0.60;;
9473;SDS011;8865;47.636;7.692;2022-10-15T01:10:21;1.27;;;0.40;;
9473;SDS011;8865;47.636;7.692;2022-10-15T01:12:57;1.27;;;0.30;;
9473;SDS011;8865;47.636;7.692;2022-10-15T01:15:52;0.30;;;0.30;;
9473;SDS011;8865;47.636;7.692;2022-10-15T01:18:28;0.40;;;0.40;;
9473;SDS011;8865;47.636;7.692;2022-10-15T01:27:05;5.53;;;0.60;;
9473;SDS011;8865;47.636;7.692;2022-10-15T01:33:10;0.50;;;0.40;;
9473;SDS011;8865;47.636;7.692;2022-10-15T01:35:48;2.23;;;0.40;;
9473;SDS011;8865;47.636;7.692;2022-10-15T01:38:19;1.40;;;0.40;;
9473;SDS011;8865;47.636;7.692;2022-10-15T01:44:06;1.10;;;0.33;;
9473;SDS011;8865;47.636;7.692;2022-10-15T01:46:59;1.57;;;0.60;;
9473;SDS011;8865;47.636;7.692;2022-10-15T01:49:31;0.87;;;0.37;;
9473;SDS011;8865;47.636;7.692;2022-10-15T01:52:03;1.60;;;0.20;;
9473;SDS011;8865;47.636;7.692;2022-10-15T01:54:33;0.53;;;0.30;;
9473;SDS011;8865;47.636;7.692;2022-10-15T01:57:00;1.37;;;0.33;;
9473;SDS011;8865;47.636;7.692;2022-10-15T01:59:30;0.20;;;0.20;;
9473;SDS011;8865;47.636;7.692;2022-10-15T02:01:57;1.90;;;0.33;;
9473;SDS011;8865;47.636;7.692;2022-10-15T02:04:32;1.30;;;0.40;;
9473;SDS011;8865;47.636;7.692;2022-10-15T02:21:11;0.53;;;0.20;;
9473;SDS011;8865;47.636;7.692;2022-10-15T02:26:11;4.67;;;1.23;;
9473;SDS011;8865;47.636;7.692;2022-10-15T02:28:40;1.07;;;1.07;;
9473;SDS011;8865;47.636;7.692;2022-10-15T02:31:08;2.10;;;1.20;;
9473;SDS011;8865;47.636;7.692;2022-10-15T02:33:38;2.00;;;0.50;;
9473;SDS011;8865;47.636;7.692;2022-10-15T02:36:05;1.03;;;0.30;;
9473;SDS011;8865;47.636;7.692;2022-10-15T02:38:31;0.80;;;0.40;;
9473;SDS011;8865;47.636;7.692;2022-10-15T02:40:59;0.60;;;0.50;;
9473;SDS011;8865;47.636;7.692;2022-10-15T02:43:26;2.20;;;0.50;;
9473;SDS011;8865;47.636;7.692;2022-10-15T02:45:52;0.73;;;0.50;;
9473;SDS011;8865;47.636;7.692;2022-10-15T02:48:18;0.80;;;0.40;;
9473;SDS011;8865;47.636;7.692;2022-10-15T02:50:44;0.97;;;0.47;;
9473;SDS011;8865;47.636;7.692;2022-10-15T02:53:10;1.50;;;0.60;;
9473;SDS011;8865;47.636;7.692;2022-10-15T02:55:36;1.00;;;0.57;;
9473;SDS011;8865;47.636;7.692;2022-10-15T02:58:02;3.23;;;0.60;;
9473;SDS011;8865;47.636;7.692;2022-10-15T03:00:28;2.80;;;0.60;;
9473;SDS011;8865;47.636;7.692;2022-10-15T03:02:54;1.47;;;0.40;;
9473;SDS011;8865;47.636;7.692;2022-10-15T03:05:20;1.60;;;0.50;;
9473;SDS011;8865;47.636;7.692;2022-10-15T03:07:46;3.17;;;0.70;;
9473;SDS011;8865;47.636;7.692;2022-10-15T03:10:12;0.50;;;0.33;;
9473;SDS011;8865;47.636;7.692;2022-10-15T03:12:38;0.83;;;0.50;;
9473;SDS011;8865;47.636;7.692;2022-10-15T03:15:05;1.20;;;0.70;;
9473;SDS011;8865;47.636;7.692;2022-10-15T03:17:31;0.90;;;0.30;;
9473;SDS011;8865;47.636;7.692;2022-10-15T03:19:57;3.33;;;0.70;;
9473;SDS011;8865;47.636;7.692;2022-10-15T03:22:23;2.57;;;0.77;;
9473;SDS011;8865;47.636;7.692;2022-10-15T03:24:49;1.33;;;0.60;;
9473;SDS011;8865;47.636;7.692;2022-10-15T03:27:15;0.57;;;0.40;;
9473;SDS011;8865;47.636;7.692;2022-10-15T03:29:41;4.67;;;0.63;;
9473;SDS011;8865;47.636;7.692;2022-10-15T03:32:07;0.93;;;0.57;;
9473;SDS011;8865;47.636;7.692;2022-10-15T03:34:33;1.07;;;0.30;;
9473;SDS011;8865;47.636;7.692;2022-10-15T03:36:59;1.20;;;0.40;;
9473;SDS011;8865;47.636;7.692;2022-10-15T03:39:25;2.17;;;1.00;;
9473;SDS011;8865;47.636;7.692;2022-10-15T03:41:52;1.13;;;0.70;;
9473;SDS011;8865;47.636;7.692;2022-10-15T03:44:18;0.70;;;0.60;;
9473;SDS011;8865;47.636;7.692;2022-10-15T03:46:44;0.60;;;0.60;;
9473;SDS011;8865;47.636;7.692;2022-10-15T03:49:10;0.30;;;0.30;;
9473;SDS011;8865;47.636;7.692;2022-10-15T03:51:36;1.23;;;0.40;;
9473;SDS011;8865;47.636;7.692;2022-10-15T03:54:02;0.57;;;0.43;;
9473;SDS011;8865;47.636;7.692;2022-10-15T03:56:28;0.60;;;0.50;;
9473;SDS011;8865;47.636;7.692;2022-10-15T03:58:54;1.90;;;0.40;;
9473;SDS011;8865;47.636;7.692;2022-10-15T04:01:20;1.27;;;0.40;;
9473;SDS011;8865;47.636;7.692;2022-10-15T04:03:46;1.00;;;0.50;;
9473;SDS011;8865;47.636;7.692;2022-10-15T04:06:12;1.27;;;0.60;;
9473;SDS011;8865;47.636;7.692;2022-10-15T04:08:38;0.80;;;0.63;;
9473;SDS011;8865;47.636;7.692;2022-10-15T04:11:04;1.00;;;0.53;;
9473;SDS011;8865;47.636;7.692;2022-10-15T04:13:30;0.40;;;0.40;;
9473;SDS011;8865;47.636;7.692;2022-10-15T04:15:56;0.40;;;0.30;;
9473;SDS011;8865;47.636;7.692;2022-10-15T04:18:22;0.30;;;0.30;;
9473;SDS011;8865;47.636;7.692;2022-10-15T04:20:48;0.53;;;0.40;;
9473;SDS011;8865;47.636;7.692;2022-10-15T04:23:15;0.97;;;0.57;;
9473;SDS011;8865;47.636;7.692;2022-10-15T04:25:41;2.30;;;0.40;;
9473;SDS011;8865;47.636;7.692;2022-10-15T04:28:07;1.10;;;0.43;;
9473;SDS011;8865;47.636;7.692;2022-10-15T04:30:33;1.20;;;0.70;;
9473;SDS011;8865;47.636;7.692;2022-10-15T04:33:00;2.90;;;0.60;;
9473;SDS011;8865;47.636;7.692;2022-10-15T04:35:26;1.47;;;0.30;;
9473;SDS011;8865;47.636;7.692;2022-10-15T04:37:52;2.70;;;0.53;;
9473;SDS011;8865;47.636;7.692;2022-10-15T04:40:18;0.60;;;0.40;;
9473;SDS011;8865;47.636;7.692;2022-10-15T04:42:44;1.30;;;0.33;;
9473;SDS011;8865;47.636;7.692;2022-10-15T04:45:10;1.07;;;0.30;;
9473;SDS011;8865;47.636;7.692;2022-10-15T04:47:36;0.93;;;0.40;;
9473;SDS011;8865;47.636;7.692;2022-10-15T04:50:02;0.90;;;0.40;;
9473;SDS011;8865;47.636;7.692;2022-10-15T04:52:28;1.60;;;0.40;;
9473;SDS011;8865;47.636;7.692;2022-10-15T04:54:54;0.60;;;0.60;;
9473;SDS011;8865;47.636;7.692;2022-10-15T04:57:20;0.53;;;0.40;;
9473;SDS011;8865;47.636;7.692;2022-10-15T04:59:46;0.50;;;0.27;;
9473;SDS011;8865;47.636;7.692;2022-10-15T05:02:12;0.67;;;0.47;;
9473;SDS011;8865;47.636;7.692;2022-10-15T05:04:38;1.17;;;0.50;;
9473;SDS011;8865;47.636;7.692;2022-10-15T05:07:04;0.63;;;0.60;;
9473;SDS011;8865;47.636;7.692;2022-10-15T05:09:30;1.37;;;0.33;;
9473;SDS011;8865;47.636;7.692;2022-10-15T05:11:56;1.70;;;0.40;;
9473;SDS011;8865;47.636;7.692;2022-10-15T05:14:22;2.27;;;0.63;;
9473;SDS011;8865;47.636;7.692;2022-10-15T05:16:48;1.20;;;0.50;;
9473;SDS011;8865;47.636;7.692;2022-10-15T05:19:14;1.70;;;0.40;;
9473;SDS011;8865;47.636;7.692;2022-10-15T05:21:41;1.13;;;0.60;;
9473;SDS011;8865;47.636;7.692;2022-10-15T05:24:08;0.50;;;0.50;;
9473;SDS011;8865;47.636;7.692;2022-10-15T05:26:34;2.20;;;0.70;;
9473;SDS011;8865;47.636;7.692;2022-10-15T05:29:01;2.13;;;0.77;;
9473;SDS011;8865;47.636;7.692;2022-10-15T05:31:28;1.23;;;0.63;;
9473;SDS011;8865;47.636;7.692;2022-10-15T05:33:55;1.87;;;0.70;;
9473;SDS011;8865;47.636;7.692;2022-10-15T05:36:22;2.77;;;0.50;;
9473;SDS011;8865;47.636;7.692;2022-10-15T05:39:00;2.07;;;0.70;;
9473;SDS011;8865;47.636;7.692;2022-10-15T05:41:28;0.93;;;0.40;;
9473;SDS011;8865;47.636;7.692;2022-10-15T05:43:55;2.30;;;0.57;;
9473;SDS011;8865;47.636;7.692;2022-10-15T05:46:22;2.13;;;0.83;;
9473;SDS011;8865;47.636;7.692;2022-10-15T05:48:50;3.90;;;0.63;;
9473;SDS011;8865;47.636;7.692;2022-10-15T05:51:17;1.83;;;0.60;;
9473;SDS011;8865;47.636;7.692;2022-10-15T05:53:43;1.17;;;0.50;;
9473;SDS011;8865;47.636;7.692;2022-10-15T05:56:14;1.20;;;0.67;;
9473;SDS011;8865;47.636;7.692;2022-10-15T05:58:40;1.83;;;0.80;;
9473;SDS011;8865;47.636;7.692;2022-10-15T06:01:07;4.30;;;0.70;;
9473;SDS011;8865;47.636;7.692;2022-10-15T06:03:35;1.97;;;0.80;;
9473;SDS011;8865;47.636;7.692;2022-10-15T06:06:01;1.03;;;0.70;;
9473;SDS011;8865;47.636;7.692;2022-10-15T06:08:27;1.90;;;0.80;;
9473;SDS011;8865;47.636;7.692;2022-10-15T06:10:55;2.33;;;0.77;;
9473;SDS011;8865;47.636;7.692;2022-10-15T06:13:27;5.53;;;1.10;;
9473;SDS011;8865;47.636;7.692;2022-10-15T06:15:53;1.97;;;0.60;;
9473;SDS011;8865;47.636;7.692;2022-10-15T06:18:19;2.13;;;1.07;;
9473;SDS011;8865;47.636;7.692;2022-10-15T06:20:49;2.37;;;0.80;;
9473;SDS011;8865;47.636;7.692;2022-10-15T06:23:17;2.03;;;0.93;;
9473;SDS011;8865;47.636;7.692;2022-10-15T06:25:44;1.13;;;0.67;;
9473;SDS011;8865;47.636;7.692;2022-10-15T06:28:10;1.63;;;0.80;;
9473;SDS011;8865;47.636;7.692;2022-10-15T06:30:36;2.50;;;0.90;;
9473;SDS011;8865;47.636;7.692;2022-10-15T06:33:02;3.53;;;0.80;;
9473;SDS011;8865;47.636;7.692;2022-10-15T06:35:28;0.93;;;0.83;;
9473;SDS011;8865;47.636;7.692;2022-10-15T06:38:03;2.53;;;0.90;;
9473;SDS011;8865;47.636;7.692;2022-10-15T06:40:30;1.13;;;0.80;;
9473;SDS011;8865;47.636;7.692;2022-10-15T06:43:05;2.00;;;0.90;;
9473;SDS011;8865;47.636;7.692;2022-10-15T06:45:36;2.33;;;1.10;;
9473;SDS011;8865;47.636;7.692;2022-10-15T06:48:04;2.23;;;1.00;;
9473;SDS011;8865;47.636;7.692;2022-10-15T06:50:32;3.50;;;1.03;;
9473;SDS011;8865;47.636;7.692;2022-10-15T06:52:59;1.00;;;0.80;;
9473;SDS011;8865;47.636;7.692;2022-10-15T06:55:25;2.33;;;0.80;;
9473;SDS011;8865;47.636;7.692;2022-10-15T06:57:53;3.20;;;0.80;;
9473;SDS011;8865;47.636;7.692;2022-10-15T07:00:25;1.83;;;0.90;;
9473;SDS011;8865;47.636;7.692;2022-10-15T07:02:52;2.07;;;1.03;;
9473;SDS011;8865;47.636;7.692;2022-10-15T07:05:18;2.67;;;1.03;;
9473;SDS011;8865;47.636;7.692;2022-10-15T07:07:51;5.47;;;1.07;;
9473;SDS011;8865;47.636;7.692;2022-10-15T07:10:18;2.07;;;1.10;;
9473;SDS011;8865;47.636;7.692;2022-10-15T07:12:44;1.50;;;0.90;;
9473;SDS011;8865;47.636;7.692;2022-10-15T07:15:10;3.47;;;1.00;;
9473;SDS011;8865;47.636;7.692;2022-10-15T07:17:36;2.17;;;1.13;;
9473;SDS011;8865;47.636;7.692;2022-10-15T07:20:04;2.83;;;1.00;;
9473;SDS011;8865;47.636;7.692;2022-10-15T07:22:31;1.57;;;1.00;;
9473;SDS011;8865;47.636;7.692;2022-10-15T07:24:57;1.70;;;0.77;;
9473;SDS011;8865;47.636;7.692;2022-10-15T07:27:23;1.07;;;0.70;;
9473;SDS011;8865;47.636;7.692;2022-10-15T07:29:49;1.90;;;0.60;;
9473;SDS011;8865;47.636;7.692;2022-10-15T07:32:15;2.63;;;0.80;;
9473;SDS011;8865;47.636;7.692;2022-10-15T07:34:41;2.87;;;0.70;;
9473;SDS011;8865;47.636;7.692;2022-10-15T07:37:07;3.70;;;0.57;;
9473;SDS011;8865;47.636;7.692;2022-10-15T07:39:33;2.73;;;0.50;;
9473;SDS011;8865;47.636;7.692;2022-10-15T07:41:59;1.03;;;0.50;;
9473;SDS011;8865;47.636;7.692;2022-10-15T07:44:25;1.63;;;0.77;;
9473;SDS011;8865;47.636;7.692;2022-10-15T07:46:51;1.80;;;0.70;;
9473;SDS011;8865;47.636;7.692;2022-10-15T07:49:17;2.63;;;0.80;;
9473;SDS011;8865;47.636;7.692;2022-10-15T07:51:43;4.27;;;0.70;;
9473;SDS011;8865;47.636;7.692;2022-10-15T07:54:09;1.90;;;0.70;;
9473;SDS011;8865;47.636;7.692;2022-10-15T07:56:35;1.87;;;1.00;;
9473;SDS011;8865;47.636;7.692;2022-10-15T07:59:01;4.83;;;1.07;;
9473;SDS011;8865;47.636;7.692;2022-10-15T08:01:27;1.37;;;1.10;;
9473;SDS011;8865;47.636;7.692;2022-10-15T08:03:53;3.50;;;1.67;;
9473;SDS011;8865;47.636;7.692;2022-10-15T08:06:19;5.60;;;2.00;;
9473;SDS011;8865;47.636;7.692;2022-10-15T08:08:45;2.43;;;1.13;;
9473;SDS011;8865;47.636;7.692;2022-10-15T08:11:13;1.17;;;0.70;;
9473;SDS011;8865;47.636;7.692;2022-10-15T08:13:40;1.30;;;1.00;;
9473;SDS011;8865;47.636;7.692;2022-10-15T08:16:08;2.60;;;1.03;;
9473;SDS011;8865;47.636;7.692;2022-10-15T08:18:35;1.07;;;0.70;;
9473;SDS011;8865;47.636;7.692;2022-10-15T08:21:02;5.13;;;1.07;;
9473;SDS011;8865;47.636;7.692;2022-10-15T08:23:31;3.03;;;0.80;;
9473;SDS011;8865;47.636;7.692;2022-10-15T08:25:58;2.13;;;0.90;;
9473;SDS011;8865;47.636;7.692;2022-10-15T08:28:27;2.67;;;1.00;;
9473;SDS011;8865;47.636;7.692;2022-10-15T08:30:56;1.70;;;1.40;;
9473;SDS011;8865;47.636;7.692;2022-10-15T08:33:23;1.50;;;0.80;;
9473;SDS011;8865;47.636;7.692;2022-10-15T08:35:49;2.53;;;1.17;;
9473;SDS011;8865;47.636;7.692;2022-10-15T08:38:17;1.33;;;0.97;;
9473;SDS011;8865;47.636;7.692;2022-10-15T08:40:49;2.43;;;0.80;;
9473;SDS011;8865;47.636;7.692;2022-10-15T08:43:25;0.90;;;0.67;;
9473;SDS011;8865;47.636;7.692;2022-10-15T08:46:05;6.83;;;5.40;;
9473;SDS011;8865;47.636;7.692;2022-10-15T08:48:37;2.23;;;1.00;;
9473;SDS011;8865;47.636;7.692;2022-10-15T08:51:16;1.10;;;0.80;;
9473;SDS011;8865;47.636;7.692;2022-10-15T08:53:46;4.03;;;0.80;;
9473;SDS011;8865;47.636;7.692;2022-10-15T08:56:27;1.43;;;0.63;;
9473;SDS011;8865;47.636;7.692;2022-10-15T08:59:00;0.87;;;0.77;;
9473;SDS011;8865;47.636;7.692;2022-10-15T09:04:29;4.87;;;0.87;;
9473;SDS011;8865;47.636;7.692;2022-10-15T09:07:04;3.73;;;1.03;;
9473;SDS011;8865;47.636;7.692;2022-10-15T09:09:37;0.97;;;0.90;;
9473;SDS011;8865;47.636;7.692;2022-10-15T09:15:02;2.07;;;0.70;;
9473;SDS011;8865;47.636;7.692;2022-10-15T09:17:30;1.17;;;0.97;;
9473;SDS011;8865;47.636;7.692;2022-10-15T09:19:58;2.50;;;0.97;;
9473;SDS011;8865;47.636;7.692;2022-10-15T09:22:29;4.37;;;2.17;;
9473;SDS011;8865;47.636;7.692;2022-10-15T09:24:56;2.83;;;1.50;;
9473;SDS011;8865;47.636;7.692;2022-10-15T09:27:35;1.97;;;0.90;;
9473;SDS011;8865;47.636;7.692;2022-10-15T09:30:47;2.00;;;0.73;;
9473;SDS011;8865;47.636;7.692;2022-10-15T09:35:44;1.43;;;0.70;;
9473;SDS011;8865;47.636;7.692;2022-10-15T09:38:22;1.50;;;0.57;;
9473;SDS011;8865;47.636;7.692;2022-10-15T09:43:47;2.60;;;0.80;;
9473;SDS011;8865;47.636;7.692;2022-10-15T09:46:15;3.50;;;0.80;;
9473;SDS011;8865;47.636;7.692;2022-10-15T09:51:21;2.60;;;0.70;;
9473;SDS011;8865;47.636;7.692;2022-10-15T09:56:35;2.60;;;1.33;;
9473;SDS011;8865;47.636;7.692;2022-10-15T09:59:14;3.17;;;0.60;;
9473;SDS011;8865;47.636;7.692;2022-10-15T10:04:28;1.40;;;1.10;;
9473;SDS011;8865;47.636;7.692;2022-10-15T10:06:57;3.40;;;1.10;;
9473;SDS011;8865;47.636;7.692;2022-10-15T10:10:20;2.50;;;1.00;;
9473;SDS011;8865;47.636;7.692;2022-10-15T10:12:20;2.70;;;1.10;;
9473;SDS011;8865;47.636;7.692;2022-10-15T10:14:59;4.53;;;1.03;;
9473;SDS011;8865;47.636;7.692;2022-10-15T10:17:29;3.73;;;1.13;;
9473;SDS011;8865;47.636;7.692;2022-10-15T10:20:08;3.70;;;1.10;;
9473;SDS011;8865;47.636;7.692;2022-10-15T10:22:43;2.53;;;1.00;;
9473;SDS011;8865;47.636;7.692;2022-10-15T10:27:55;2.73;;;1.10;;
9473;SDS011;8865;47.636;7.692;2022-10-15T10:30:33;3.83;;;1.37;;
9473;SDS011;8865;47.636;7.692;2022-10-15T10:33:16;3.07;;;1.30;;
9473;SDS011;8865;47.636;7.692;2022-10-15T10:35:49;4.33;;;1.90;;
9473;SDS011;8865;47.636;7.692;2022-10-15T10:38:17;4.67;;;1.80;;
9473;SDS011;8865;47.636;7.692;2022-10-15T10:40:48;6.17;;;1.50;;
9473;SDS011;8865;47.636;7.692;2022-10-15T10:48:36;3.63;;;1.30;;
9473;SDS011;8865;47.636;7.692;2022-10-15T10:59:22;4.30;;;1.30;;
9473;SDS011;8865;47.636;7.692;2022-10-15T11:01:50;6.43;;;1.30;;
9473;SDS011;8865;47.636;7.692;2022-10-15T11:04:29;3.83;;;1.50;;
9473;SDS011;8865;47.636;7.692;2022-10-15T11:07:02;5.37;;;1.20;;
9473;SDS011;8865;47.636;7.692;2022-10-15T11:09:44;1.07;;;1.00;;
9473;SDS011;8865;47.636;7.692;2022-10-15T11:27:03;2.10;;;0.87;;
9473;SDS011;8865;47.636;7.692;2022-10-15T16:26:16;4.00;;;1.57;;
9473;SDS011;8865;47.636;7.692;2022-10-15T16:28:43;4.43;;;1.53;;
9473;SDS011;8865;47.636;7.692;2022-10-15T16:31:27;3.20;;;1.97;;
9473;SDS011;8865;47.636;7.692;2022-10-15T16:33:53;4.83;;;4.30;;
9473;SDS011;8865;47.636;7.692;2022-10-15T16:36:20;8.67;;;7.13;;
9473;SDS011;8865;47.636;7.692;2022-10-15T16:38:46;6.87;;;6.27;;
9473;SDS011;8865;47.636;7.692;2022-10-15T16:41:13;6.10;;;5.60;;
9473;SDS011;8865;47.636;7.692;2022-10-15T16:43:40;6.00;;;3.37;;
9473;SDS011;8865;47.636;7.692;2022-10-15T16:46:06;3.90;;;2.60;;
9473;SDS011;8865;47.636;7.692;2022-10-15T16:48:32;4.77;;;2.20;;
9473;SDS011;8865;47.636;7.692;2022-10-15T16:50:59;3.90;;;1.93;;
9473;SDS011;8865;47.636;7.692;2022-10-15T16:53:28;5.50;;;1.80;;
9473;SDS011;8865;47.636;7.692;2022-10-15T16:55:58;5.93;;;2.00;;
9473;SDS011;8865;47.636;7.692;2022-10-15T16:58:25;4.87;;;2.53;;
9473;SDS011;8865;47.636;7.692;2022-10-15T17:00:51;6.17;;;2.70;;
9473;SDS011;8865;47.636;7.692;2022-10-15T17:03:17;3.83;;;2.20;;
9473;SDS011;8865;47.636;7.692;2022-10-15T17:05:43;3.80;;;2.10;;
9473;SDS011;8865;47.636;7.692;2022-10-15T17:08:09;5.27;;;2.80;;
9473;SDS011;8865;47.636;7.692;2022-10-15T17:10:40;4.97;;;2.57;;
9473;SDS011;8865;47.636;7.692;2022-10-15T17:13:07;5.33;;;2.70;;
9473;SDS011;8865;47.636;7.692;2022-10-15T17:15:33;4.73;;;2.90;;
9473;SDS011;8865;47.636;7.692;2022-10-15T17:17:59;7.10;;;1.60;;
9473;SDS011;8865;47.636;7.692;2022-10-15T17:20:25;10.23;;;2.07;;
9473;SDS011;8865;47.636;7.692;2022-10-15T17:22:51;3.80;;;2.00;;
9473;SDS011;8865;47.636;7.692;2022-10-15T17:25:17;5.27;;;2.30;;
9473;SDS011;8865;47.636;7.692;2022-10-15T17:27:44;3.33;;;2.70;;
9473;SDS011;8865;47.636;7.692;2022-10-15T17:30:10;5.23;;;2.57;;
9473;SDS011;8865;47.636;7.692;2022-10-15T17:32:36;11.17;;;7.60;;
9473;SDS011;8865;47.636;7.692;2022-10-15T17:35:02;8.47;;;3.90;;
9473;SDS011;8865;47.636;7.692;2022-10-15T17:37:28;3.70;;;2.20;;
9473;SDS011;8865;47.636;7.692;2022-10-15T17:39:54;6.97;;;2.57;;
9473;SDS011;8865;47.636;7.692;2022-10-15T17:42:23;4.70;;;2.00;;
9473;SDS011;8865;47.636;7.692;2022-10-15T17:44:49;7.97;;;2.20;;
9473;SDS011;8865;47.636;7.692;2022-10-15T17:47:15;5.97;;;1.90;;
9473;SDS011;8865;47.636;7.692;2022-10-15T17:49:41;4.00;;;1.70;;
9473;SDS011;8865;47.636;7.692;2022-10-15T17:52:07;4.63;;;2.07;;
9473;SDS011;8865;47.636;7.692;2022-10-15T17:54:34;4.03;;;1.97;;
9473;SDS011;8865;47.636;7.692;2022-10-15T17:57:00;5.33;;;2.47;;
9473;SDS011;8865;47.636;7.692;2022-10-15T17:59:26;6.23;;;2.93;;
9473;SDS011;8865;47.636;7.692;2022-10-15T18:01:52;9.73;;;3.33;;
9473;SDS011;8865;47.636;7.692;2022-10-15T18:04:18;10.50;;;4.10;;
9473;SDS011;8865;47.636;7.692;2022-10-15T18:06:44;10.00;;;3.70;;
9473;SDS011;8865;47.636;7.692;2022-10-15T18:09:10;8.50;;;3.77;;
9473;SDS011;8865;47.636;7.692;2022-10-15T18:11:36;6.77;;;3.30;;
9473;SDS011;8865;47.636;7.692;2022-10-15T18:14:02;6.93;;;3.10;;
9473;SDS011;8865;47.636;7.692;2022-10-15T18:16:28;16.67;;;3.10;;
9473;SDS011;8865;47.636;7.692;2022-10-15T18:18:54;5.27;;;3.27;;
9473;SDS011;8865;47.636;7.692;2022-10-15T18:21:21;7.00;;;2.70;;
9473;SDS011;8865;47.636;7.692;2022-10-15T18:23:49;6.97;;;2.63;;
9473;SDS011;8865;47.636;7.692;2022-10-15T18:26:19;4.97;;;2.90;;
9473;SDS011;8865;47.636;7.692;2022-10-15T18:28:46;9.67;;;3.50;;
9473;SDS011;8865;47.636;7.692;2022-10-15T18:31:15;7.77;;;3.40;;
9473;SDS011;8865;47.636;7.692;2022-10-15T18:33:42;9.30;;;3.40;;
9473;SDS011;8865;47.636;7.692;2022-10-15T18:36:10;6.90;;;3.23;;
9473;SDS011;8865;47.636;7.692;2022-10-15T18:38:39;4.80;;;2.80;;
9473;SDS011;8865;47.636;7.692;2022-10-15T18:41:26;11.40;;;2.90;;
9473;SDS011;8865;47.636;7.692;2022-10-15T18:43:55;8.47;;;3.70;;
9473;SDS011;8865;47.636;7.692;2022-10-15T18:46:23;5.67;;;3.83;;
9473;SDS011;8865;47.636;7.692;2022-10-15T18:48:49;7.33;;;3.77;;
9473;SDS011;8865;47.636;7.692;2022-10-15T18:51:16;12.33;;;3.87;;
9473;SDS011;8865;47.636;7.692;2022-10-15T18:53:42;6.27;;;4.10;;
9473;SDS011;8865;47.636;7.692;2022-10-15T18:56:08;12.80;;;4.40;;
9473;SDS011;8865;47.636;7.692;2022-10-15T18:58:37;7.20;;;3.70;;
9473;SDS011;8865;47.636;7.692;2022-10-15T19:03:52;5.70;;;3.40;;
9473;SDS011;8865;47.636;7.692;2022-10-15T19:06:23;5.40;;;3.10;;
9473;SDS011;8865;47.636;7.692;2022-10-15T19:08:51;8.07;;;3.20;;
9473;SDS011;8865;47.636;7.692;2022-10-15T19:11:17;7.80;;;3.27;;
9473;SDS011;8865;47.636;7.692;2022-10-15T19:13:44;8.93;;;3.50;;
9473;SDS011;8865;47.636;7.692;2022-10-15T19:16:10;6.93;;;3.70;;
9473;SDS011;8865;47.636;7.692;2022-10-15T19:18:36;7.80;;;3.53;;
9473;SDS011;8865;47.636;7.692;2022-10-15T19:21:03;9.50;;;4.07;;
9473;SDS011;8865;47.636;7.692;2022-10-15T19:23:29;5.80;;;3.50;;
9473;SDS011;8865;47.636;7.692;2022-10-15T19:25:56;4.93;;;3.27;;
9473;SDS011;8865;47.636;7.692;2022-10-15T19:28:23;4.90;;;3.33;;
9473;SDS011;8865;47.636;7.692;2022-10-15T19:30:53;7.43;;;4.23;;
9473;SDS011;8865;47.636;7.692;2022-10-15T19:33:24;10.23;;;4.80;;
9473;SDS011;8865;47.636;7.692;2022-10-15T19:35:51;5.47;;;4.20;;
9473;SDS011;8865;47.636;7.692;2022-10-15T19:38:17;13.53;;;10.37;;
9473;SDS011;8865;47.636;7.692;2022-10-15T19:40:43;17.27;;;10.20;;
9473;SDS011;8865;47.636;7.692;2022-10-15T19:43:10;8.03;;;4.60;;
9473;SDS011;8865;47.636;7.692;2022-10-15T19:45:36;8.03;;;4.93;;
9473;SDS011;8865;47.636;7.692;2022-10-15T19:48:04;6.13;;;4.57;;
9473;SDS011;8865;47.636;7.692;2022-10-15T19:50:30;9.53;;;5.50;;
9473;SDS011;8865;47.636;7.692;2022-10-15T19:53:00;6.57;;;4.73;;
9473;SDS011;8865;47.636;7.692;2022-10-15T19:55:26;6.03;;;4.10;;
9473;SDS011;8865;47.636;7.692;2022-10-15T19:57:52;8.90;;;4.13;;
9473;SDS011;8865;47.636;7.692;2022-10-15T20:00:18;5.10;;;3.60;;
9473;SDS011;8865;47.636;7.692;2022-10-15T20:02:44;5.43;;;3.50;;
9473;SDS011;8865;47.636;7.692;2022-10-15T20:05:10;5.83;;;3.83;;
9473;SDS011;8865;47.636;7.692;2022-10-15T20:07:36;3.93;;;3.53;;
9473;SDS011;8865;47.636;7.692;2022-10-15T20:10:03;5.77;;;3.43;;
9473;SDS011;8865;47.636;7.692;2022-10-15T20:12:29;9.77;;;4.53;;
9473;SDS011;8865;47.636;7.692;2022-10-15T20:14:55;7.23;;;4.40;;
9473;SDS011;8865;47.636;7.692;2022-10-15T20:17:21;11.73;;;3.67;;
9473;SDS011;8865;47.636;7.692;2022-10-15T20:19:47;8.40;;;3.37;;
9473;SDS011;8865;47.636;7.692;2022-10-15T20:22:13;5.03;;;3.47;;
9473;SDS011;8865;47.636;7.692;2022-10-15T20:24:39;6.73;;;3.83;;
9473;SDS011;8865;47.636;7.692;2022-10-15T20:27:05;7.33;;;3.73;;
9473;SDS011;8865;47.636;7.692;2022-10-15T20:29:31;5.33;;;3.67;;
9473;SDS011;8865;47.636;7.692;2022-10-15T20:31:57;6.47;;;3.13;;
9473;SDS011;8865;47.636;7.692;2022-10-15T20:34:23;6.33;;;3.00;;
9473;SDS011;8865;47.636;7.692;2022-10-15T20:36:52;6.13;;;3.30;;
9473;SDS011;8865;47.636;7.692;2022-10-15T20:39:18;5.50;;;2.87;;
9473;SDS011;8865;47.636;7.692;2022-10-15T20:41:45;4.10;;;2.57;;
9473;SDS011;8865;47.636;7.692;2022-10-15T20:44:12;5.47;;;2.53;;
9473;SDS011;8865;47.636;7.692;2022-10-15T20:46:39;9.00;;;2.73;;
9473;SDS011;8865;47.636;7.692;2022-10-15T20:49:18;3.87;;;2.23;;
9473;SDS011;8865;47.636;7.692;2022-10-15T20:51:49;4.80;;;2.80;;
9473;SDS011;8865;47.636;7.692;2022-10-15T20:54:16;4.63;;;2.97;;
9473;SDS011;8865;47.636;7.692;2022-10-15T20:56:43;11.63;;;3.30;;
9473;SDS011;8865;47.636;7.692;2022-10-15T20:59:10;4.33;;;3.07;;
9473;SDS011;8865;47.636;7.692;2022-10-15T21:01:36;9.07;;;3.00;;
9473;SDS011;8865;47.636;7.692;2022-10-15T21:04:02;7.13;;;3.20;;
9473;SDS011;8865;47.636;7.692;2022-10-15T21:06:29;6.20;;;2.80;;
9473;SDS011;8865;47.636;7.692;2022-10-15T21:08:55;7.60;;;2.73;;
9473;SDS011;8865;47.636;7.692;2022-10-15T21:11:21;5.23;;;2.73;;
9473;SDS011;8865;47.636;7.692;2022-10-15T21:13:48;7.97;;;2.50;;
9473;SDS011;8865;47.636;7.692;2022-10-15T21:16:14;4.97;;;2.80;;
9473;SDS011;8865;47.636;7.692;2022-10-15T21:18:41;4.53;;;2.60;;
9473;SDS011;8865;47.636;7.692;2022-10-15T21:21:11;6.63;;;2.63;;
9473;SDS011;8865;47.636;7.692;2022-10-15T21:23:38;8.37;;;2.93;;
9473;SDS011;8865;47.636;7.692;2022-10-15T21:26:10;8.83;;;3.20;;
9473;SDS011;8865;47.636;7.692;2022-10-15T21:28:37;4.20;;;3.00;;
9473;SDS011;8865;47.636;7.692;2022-10-15T21:31:08;4.30;;;3.20;;
9473;SDS011;8865;47.636;7.692;2022-10-15T21:33:35;9.10;;;2.80;;
9473;SDS011;8865;47.636;7.692;2022-10-15T21:36:12;5.03;;;2.80;;
9473;SDS011;8865;47.636;7.692;2022-10-15T21:41:18;8.10;;;2.93;;
9473;SDS011;8865;47.636;7.692;2022-10-15T21:43:45;4.80;;;2.50;;